sensor_id;sensor_type;location;lat;lon;timestamp;temperature;humidity
14737;DHT22;7459;53.590;10.062;2022-07-11T00:02:06;14.60;99.90
14737;DHT22;7459;53.590;10.062;2022-07-11T00:04:33;14.60;99.90
14737;DHT22;7459;53.590;10.062;2022-07-11T00:07:01;14.60;99.90
14737;DHT22;7459;53.590;10.062;2022-07-11T00:09:28;14.60;99.90
14737;DHT22;7459;53.590;10.062;2022-07-11T00:11:54;14.60;99.90
14737;DHT22;7459;53.590;10.062;2022-07-11T00:14:20;14.50;99.90
14737;DHT22;7459;53.590;10.062;2022-07-11T00:16:51;14.50;99.90
14737;DHT22;7459;53.590;10.062;2022-07-11T00:19:18;14.50;99.90
14737;DHT22;7459;53.590;10.062;2022-07-11T00:21:46;14.50;99.90
14737;DHT22;7459;53.590;10.062;2022-07-11T00:24:12;14.50;99.90
14737;DHT22;7459;53.590;10.062;2022-07-11T00:26:38;14.40;99.90
14737;DHT22;7459;53.590;10.062;2022-07-11T00:29:06;14.40;99.90
14737;DHT22;7459;53.590;10.062;2022-07-11T00:31:32;14.40;99.90
14737;DHT22;7459;53.590;10.062;2022-07-11T00:33:58;14.40;99.90
14737;DHT22;7459;53.590;10.062;2022-07-11T00:36:24;14.40;99.90
14737;DHT22;7459;53.590;10.062;2022-07-11T00:38:50;14.40;99.90
14737;DHT22;7459;53.590;10.062;2022-07-11T00:41:16;14.40;99.90
14737;DHT22;7459;53.590;10.062;2022-07-11T00:43:42;14.40;99.90
14737;DHT22;7459;53.590;10.062;2022-07-11T00:46:09;14.40;99.90
14737;DHT22;7459;53.590;10.062;2022-07-11T00:48:36;14.40;99.90
14737;DHT22;7459;53.590;10.062;2022-07-11T00:51:03;14.30;99.90
14737;DHT22;7459;53.590;10.062;2022-07-11T00:53:33;14.30;99.90
14737;DHT22;7459;53.590;10.062;2022-07-11T00:56:00;14.30;99.90
14737;DHT22;7459;53.590;10.062;2022-07-11T00:58:26;14.30;99.90
14737;DHT22;7459;53.590;10.062;2022-07-11T01:00:53;14.30;99.90
14737;DHT22;7459;53.590;10.062;2022-07-11T01:03:19;14.30;99.90
14737;DHT22;7459;53.590;10.062;2022-07-11T01:05:44;14.30;99.90
14737;DHT22;7459;53.590;10.062;2022-07-11T01:08:10;14.30;99.90
14737;DHT22;7459;53.590;10.062;2022-07-11T01:10:36;14.40;99.90
14737;DHT22;7459;53.590;10.062;2022-07-11T01:13:02;14.30;99.90
14737;DHT22;7459;53.590;10.062;2022-07-11T01:15:27;14.30;99.90
14737;DHT22;7459;53.590;10.062;2022-07-11T01:17:53;14.20;99.90
14737;DHT22;7459;53.590;10.062;2022-07-11T01:20:20;14.20;99.90
14737;DHT22;7459;53.590;10.062;2022-07-11T01:22:52;14.10;99.90
14737;DHT22;7459;53.590;10.062;2022-07-11T01:25:19;14.10;99.90
14737;DHT22;7459;53.590;10.062;2022-07-11T01:30:29;14.00;99.90
14737;DHT22;7459;53.590;10.062;2022-07-11T01:32:55;13.90;99.90
14737;DHT22;7459;53.590;10.062;2022-07-11T01:35:22;13.90;99.90
14737;DHT22;7459;53.590;10.062;2022-07-11T01:37:49;13.90;99.90
14737;DHT22;7459;53.590;10.062;2022-07-11T01:40:15;13.80;99.90
14737;DHT22;7459;53.590;10.062;2022-07-11T01:42:41;13.80;99.90
14737;DHT22;7459;53.590;10.062;2022-07-11T01:45:08;13.80;99.90
14737;DHT22;7459;53.590;10.062;2022-07-11T01:47:36;13.80;99.90
14737;DHT22;7459;53.590;10.062;2022-07-11T01:50:03;13.80;99.90
14737;DHT22;7459;53.590;10.062;2022-07-11T01:52:29;13.70;99.90
14737;DHT22;7459;53.590;10.062;2022-07-11T01:54:55;13.70;99.90
14737;DHT22;7459;53.590;10.062;2022-07-11T01:57:21;13.70;99.90
14737;DHT22;7459;53.590;10.062;2022-07-11T01:59:47;13.70;99.90
14737;DHT22;7459;53.590;10.062;2022-07-11T02:02:13;13.70;99.90
14737;DHT22;7459;53.590;10.062;2022-07-11T02:07:15;13.70;99.90
14737;DHT22;7459;53.590;10.062;2022-07-11T02:10:01;13.80;99.90
14737;DHT22;7459;53.590;10.062;2022-07-11T02:12:26;13.80;99.90
14737;DHT22;7459;53.590;10.062;2022-07-11T02:14:52;13.80;99.90
14737;DHT22;7459;53.590;10.062;2022-07-11T02:17:18;13.80;99.90
14737;DHT22;7459;53.590;10.062;2022-07-11T02:19:43;13.80;99.90
14737;DHT22;7459;53.590;10.062;2022-07-11T02:22:09;13.90;99.90
14737;DHT22;7459;53.590;10.062;2022-07-11T02:24:36;13.90;99.90
14737;DHT22;7459;53.590;10.062;2022-07-11T02:27:01;13.90;99.90
14737;DHT22;7459;53.590;10.062;2022-07-11T02:29:27;13.90;99.90
14737;DHT22;7459;53.590;10.062;2022-07-11T02:31:53;13.90;99.90
14737;DHT22;7459;53.590;10.062;2022-07-11T02:34:18;13.90;99.90
14737;DHT22;7459;53.590;10.062;2022-07-11T02:36:44;13.90;99.90
14737;DHT22;7459;53.590;10.062;2022-07-11T02:39:11;13.90;99.90
14737;DHT22;7459;53.590;10.062;2022-07-11T02:41:37;13.90;99.90
14737;DHT22;7459;53.590;10.062;2022-07-11T02:44:03;13.90;99.90
14737;DHT22;7459;53.590;10.062;2022-07-11T02:46:28;13.90;99.90
14737;DHT22;7459;53.590;10.062;2022-07-11T02:48:54;13.90;99.90
14737;DHT22;7459;53.590;10.062;2022-07-11T02:51:20;13.80;99.90
14737;DHT22;7459;53.590;10.062;2022-07-11T02:53:45;13.80;99.90
14737;DHT22;7459;53.590;10.062;2022-07-11T02:56:11;13.80;99.90
14737;DHT22;7459;53.590;10.062;2022-07-11T02:58:38;13.80;99.90
14737;DHT22;7459;53.590;10.062;2022-07-11T03:01:04;13.80;99.90
14737;DHT22;7459;53.590;10.062;2022-07-11T03:03:30;13.70;99.90
14737;DHT22;7459;53.590;10.062;2022-07-11T03:05:56;13.70;99.90
14737;DHT22;7459;53.590;10.062;2022-07-11T03:08:22;13.70;99.90
14737;DHT22;7459;53.590;10.062;2022-07-11T03:10:50;13.60;99.90
14737;DHT22;7459;53.590;10.062;2022-07-11T03:13:16;13.60;99.90
14737;DHT22;7459;53.590;10.062;2022-07-11T03:15:42;13.50;99.90
14737;DHT22;7459;53.590;10.062;2022-07-11T03:18:08;13.50;99.90
14737;DHT22;7459;53.590;10.062;2022-07-11T03:20:33;13.40;99.90
14737;DHT22;7459;53.590;10.062;2022-07-11T03:22:59;13.40;99.90
14737;DHT22;7459;53.590;10.062;2022-07-11T03:25:25;13.40;99.90
14737;DHT22;7459;53.590;10.062;2022-07-11T03:27:51;13.40;99.90
14737;DHT22;7459;53.590;10.062;2022-07-11T03:30:16;13.30;99.90
14737;DHT22;7459;53.590;10.062;2022-07-11T03:32:42;13.40;99.90
14737;DHT22;7459;53.590;10.062;2022-07-11T03:35:08;13.40;99.90
14737;DHT22;7459;53.590;10.062;2022-07-11T03:37:52;13.30;99.90
14737;DHT22;7459;53.590;10.062;2022-07-11T03:40:18;13.40;99.90
14737;DHT22;7459;53.590;10.062;2022-07-11T03:42:44;13.40;99.90
14737;DHT22;7459;53.590;10.062;2022-07-11T03:45:10;13.40;99.90
14737;DHT22;7459;53.590;10.062;2022-07-11T03:47:36;13.40;99.90
14737;DHT22;7459;53.590;10.062;2022-07-11T03:50:02;13.40;99.90
14737;DHT22;7459;53.590;10.062;2022-07-11T03:52:28;13.40;99.90
14737;DHT22;7459;53.590;10.062;2022-07-11T03:54:54;13.30;99.90
14737;DHT22;7459;53.590;10.062;2022-07-11T03:57:20;13.20;99.90
14737;DHT22;7459;53.590;10.062;2022-07-11T03:59:45;13.20;99.90
14737;DHT22;7459;53.590;10.062;2022-07-11T04:02:11;13.30;99.90
14737;DHT22;7459;53.590;10.062;2022-07-11T04:04:37;13.30;99.90
14737;DHT22;7459;53.590;10.062;2022-07-11T04:07:02;13.30;99.90
14737;DHT22;7459;53.590;10.062;2022-07-11T04:09:28;13.30;99.90
14737;DHT22;7459;53.590;10.062;2022-07-11T04:11:54;13.40;99.90
14737;DHT22;7459;53.590;10.062;2022-07-11T04:14:20;13.40;99.90
14737;DHT22;7459;53.590;10.062;2022-07-11T04:16:46;13.50;99.90
14737;DHT22;7459;53.590;10.062;2022-07-11T04:19:11;13.50;99.90
14737;DHT22;7459;53.590;10.062;2022-07-11T04:21:37;13.50;99.90
14737;DHT22;7459;53.590;10.062;2022-07-11T04:24:03;13.60;99.90
14737;DHT22;7459;53.590;10.062;2022-07-11T04:26:29;13.60;99.90
14737;DHT22;7459;53.590;10.062;2022-07-11T04:28:55;13.70;99.90
14737;DHT22;7459;53.590;10.062;2022-07-11T04:31:21;13.70;99.90
14737;DHT22;7459;53.590;10.062;2022-07-11T04:33:46;13.70;99.90
14737;DHT22;7459;53.590;10.062;2022-07-11T04:36:12;13.70;99.90
14737;DHT22;7459;53.590;10.062;2022-07-11T04:38:38;13.70;99.90
14737;DHT22;7459;53.590;10.062;2022-07-11T04:41:03;13.70;99.90
14737;DHT22;7459;53.590;10.062;2022-07-11T04:43:29;13.70;99.90
14737;DHT22;7459;53.590;10.062;2022-07-11T04:45:55;13.70;99.90
14737;DHT22;7459;53.590;10.062;2022-07-11T04:48:21;13.90;99.90
14737;DHT22;7459;53.590;10.062;2022-07-11T04:50:47;13.90;99.90
14737;DHT22;7459;53.590;10.062;2022-07-11T04:53:12;14.00;99.90
14737;DHT22;7459;53.590;10.062;2022-07-11T04:55:38;14.00;99.90
14737;DHT22;7459;53.590;10.062;2022-07-11T04:58:07;14.10;99.90
14737;DHT22;7459;53.590;10.062;2022-07-11T05:00:34;14.20;99.90
14737;DHT22;7459;53.590;10.062;2022-07-11T05:03:01;14.20;99.90
14737;DHT22;7459;53.590;10.062;2022-07-11T05:05:27;14.30;99.90
14737;DHT22;7459;53.590;10.062;2022-07-11T05:07:53;14.30;99.90
14737;DHT22;7459;53.590;10.062;2022-07-11T05:10:19;14.40;99.90
14737;DHT22;7459;53.590;10.062;2022-07-11T05:12:45;14.40;99.90
14737;DHT22;7459;53.590;10.062;2022-07-11T05:15:11;14.50;99.90
14737;DHT22;7459;53.590;10.062;2022-07-11T05:17:36;14.50;99.90
14737;DHT22;7459;53.590;10.062;2022-07-11T05:20:03;14.60;99.90
14737;DHT22;7459;53.590;10.062;2022-07-11T05:22:30;14.60;99.90
14737;DHT22;7459;53.590;10.062;2022-07-11T05:24:55;14.60;99.90
14737;DHT22;7459;53.590;10.062;2022-07-11T05:27:21;14.70;99.90
14737;DHT22;7459;53.590;10.062;2022-07-11T05:29:47;14.70;99.90
14737;DHT22;7459;53.590;10.062;2022-07-11T05:32:12;14.80;99.90
14737;DHT22;7459;53.590;10.062;2022-07-11T05:34:38;14.80;99.90
14737;DHT22;7459;53.590;10.062;2022-07-11T05:37:05;14.80;99.90
14737;DHT22;7459;53.590;10.062;2022-07-11T05:39:31;14.90;99.90
14737;DHT22;7459;53.590;10.062;2022-07-11T05:41:56;14.90;99.90
14737;DHT22;7459;53.590;10.062;2022-07-11T05:44:22;14.90;99.90
14737;DHT22;7459;53.590;10.062;2022-07-11T05:46:48;15.00;99.90
14737;DHT22;7459;53.590;10.062;2022-07-11T05:49:14;15.10;99.90
14737;DHT22;7459;53.590;10.062;2022-07-11T05:51:39;15.20;99.90
14737;DHT22;7459;53.590;10.062;2022-07-11T05:54:05;15.30;99.90
14737;DHT22;7459;53.590;10.062;2022-07-11T05:56:31;15.30;99.90
14737;DHT22;7459;53.590;10.062;2022-07-11T05:58:57;15.40;99.90
14737;DHT22;7459;53.590;10.062;2022-07-11T06:01:23;15.50;99.90
14737;DHT22;7459;53.590;10.062;2022-07-11T06:03:49;15.50;99.90
14737;DHT22;7459;53.590;10.062;2022-07-11T06:06:15;15.50;99.90
14737;DHT22;7459;53.590;10.062;2022-07-11T06:08:42;15.60;99.90
14737;DHT22;7459;53.590;10.062;2022-07-11T06:11:13;15.60;99.90
14737;DHT22;7459;53.590;10.062;2022-07-11T06:13:40;15.70;99.90
14737;DHT22;7459;53.590;10.062;2022-07-11T06:16:07;15.70;99.90
14737;DHT22;7459;53.590;10.062;2022-07-11T06:18:35;15.70;99.90
14737;DHT22;7459;53.590;10.062;2022-07-11T06:21:01;15.80;99.90
14737;DHT22;7459;53.590;10.062;2022-07-11T06:23:27;15.80;99.90
14737;DHT22;7459;53.590;10.062;2022-07-11T06:25:54;15.80;99.90
14737;DHT22;7459;53.590;10.062;2022-07-11T06:28:20;15.80;99.90
14737;DHT22;7459;53.590;10.062;2022-07-11T06:30:46;15.80;99.90
14737;DHT22;7459;53.590;10.062;2022-07-11T06:33:12;15.90;99.90
14737;DHT22;7459;53.590;10.062;2022-07-11T06:35:38;15.90;99.90
14737;DHT22;7459;53.590;10.062;2022-07-11T06:38:03;16.00;99.90
14737;DHT22;7459;53.590;10.062;2022-07-11T06:40:29;16.00;99.90
14737;DHT22;7459;53.590;10.062;2022-07-11T06:42:55;16.10;99.90
14737;DHT22;7459;53.590;10.062;2022-07-11T06:45:21;16.10;99.90
14737;DHT22;7459;53.590;10.062;2022-07-11T06:47:46;16.10;99.90
14737;DHT22;7459;53.590;10.062;2022-07-11T06:50:12;16.10;99.90
14737;DHT22;7459;53.590;10.062;2022-07-11T06:52:38;16.10;99.90
14737;DHT22;7459;53.590;10.062;2022-07-11T06:55:04;16.10;99.90
14737;DHT22;7459;53.590;10.062;2022-07-11T06:57:30;16.10;99.90
14737;DHT22;7459;53.590;10.062;2022-07-11T06:59:56;16.00;99.90
14737;DHT22;7459;53.590;10.062;2022-07-11T07:02:21;16.00;99.90
14737;DHT22;7459;53.590;10.062;2022-07-11T07:04:53;16.00;99.90
14737;DHT22;7459;53.590;10.062;2022-07-11T07:07:19;15.90;99.90
14737;DHT22;7459;53.590;10.062;2022-07-11T07:09:45;15.90;99.90
14737;DHT22;7459;53.590;10.062;2022-07-11T07:12:10;15.90;99.90
14737;DHT22;7459;53.590;10.062;2022-07-11T07:14:36;15.90;99.90
14737;DHT22;7459;53.590;10.062;2022-07-11T07:17:02;16.00;99.90
14737;DHT22;7459;53.590;10.062;2022-07-11T07:19:27;16.10;99.90
14737;DHT22;7459;53.590;10.062;2022-07-11T07:21:53;16.20;99.90
14737;DHT22;7459;53.590;10.062;2022-07-11T07:24:19;16.30;99.90
14737;DHT22;7459;53.590;10.062;2022-07-11T07:26:45;16.30;99.90
14737;DHT22;7459;53.590;10.062;2022-07-11T07:29:10;16.40;99.90
14737;DHT22;7459;53.590;10.062;2022-07-11T07:31:36;16.40;99.90
14737;DHT22;7459;53.590;10.062;2022-07-11T07:34:02;16.30;99.90
14737;DHT22;7459;53.590;10.062;2022-07-11T07:36:28;16.30;99.90
14737;DHT22;7459;53.590;10.062;2022-07-11T07:38:53;16.30;99.90
14737;DHT22;7459;53.590;10.062;2022-07-11T07:41:19;16.40;99.90
14737;DHT22;7459;53.590;10.062;2022-07-11T07:43:45;16.40;99.90
14737;DHT22;7459;53.590;10.062;2022-07-11T07:46:14;16.50;99.90
14737;DHT22;7459;53.590;10.062;2022-07-11T07:48:40;16.50;99.90
14737;DHT22;7459;53.590;10.062;2022-07-11T07:51:06;16.60;99.90
14737;DHT22;7459;53.590;10.062;2022-07-11T07:53:32;16.70;99.90
14737;DHT22;7459;53.590;10.062;2022-07-11T07:55:58;16.80;99.90
14737;DHT22;7459;53.590;10.062;2022-07-11T07:58:24;16.90;99.90
14737;DHT22;7459;53.590;10.062;2022-07-11T08:00:49;16.90;99.90
14737;DHT22;7459;53.590;10.062;2022-07-11T08:03:34;17.00;99.90
14737;DHT22;7459;53.590;10.062;2022-07-11T08:05:59;17.00;99.90
14737;DHT22;7459;53.590;10.062;2022-07-11T08:08:25;17.00;99.90
14737;DHT22;7459;53.590;10.062;2022-07-11T08:10:51;17.00;99.90
14737;DHT22;7459;53.590;10.062;2022-07-11T08:13:18;17.00;99.90
14737;DHT22;7459;53.590;10.062;2022-07-11T08:15:45;17.10;99.90
14737;DHT22;7459;53.590;10.062;2022-07-11T08:18:12;17.10;99.90
14737;DHT22;7459;53.590;10.062;2022-07-11T08:20:38;17.10;99.90
14737;DHT22;7459;53.590;10.062;2022-07-11T08:23:03;17.20;99.90
14737;DHT22;7459;53.590;10.062;2022-07-11T08:25:30;17.10;99.90
14737;DHT22;7459;53.590;10.062;2022-07-11T08:27:56;17.20;99.90
14737;DHT22;7459;53.590;10.062;2022-07-11T08:30:21;17.20;99.90
14737;DHT22;7459;53.590;10.062;2022-07-11T08:32:47;17.30;99.90
14737;DHT22;7459;53.590;10.062;2022-07-11T08:35:13;17.30;99.90
14737;DHT22;7459;53.590;10.062;2022-07-11T08:37:42;17.40;99.90
14737;DHT22;7459;53.590;10.062;2022-07-11T08:40:08;17.50;99.90
14737;DHT22;7459;53.590;10.062;2022-07-11T08:42:44;17.50;99.90
14737;DHT22;7459;53.590;10.062;2022-07-11T08:45:14;17.60;99.90
14737;DHT22;7459;53.590;10.062;2022-07-11T08:47:42;17.70;99.90
14737;DHT22;7459;53.590;10.062;2022-07-11T08:50:10;17.70;99.90
14737;DHT22;7459;53.590;10.062;2022-07-11T08:52:37;17.70;99.90
14737;DHT22;7459;53.590;10.062;2022-07-11T08:55:07;17.80;99.90
14737;DHT22;7459;53.590;10.062;2022-07-11T08:57:34;17.80;99.90
14737;DHT22;7459;53.590;10.062;2022-07-11T09:00:01;17.80;99.90
14737;DHT22;7459;53.590;10.062;2022-07-11T09:02:29;17.90;99.90
14737;DHT22;7459;53.590;10.062;2022-07-11T09:04:55;17.90;99.90
14737;DHT22;7459;53.590;10.062;2022-07-11T09:07:21;18.10;99.90
14737;DHT22;7459;53.590;10.062;2022-07-11T09:09:46;18.10;99.90
14737;DHT22;7459;53.590;10.062;2022-07-11T09:12:15;18.20;99.90
14737;DHT22;7459;53.590;10.062;2022-07-11T09:14:49;18.20;99.90
14737;DHT22;7459;53.590;10.062;2022-07-11T09:17:25;18.10;99.90
14737;DHT22;7459;53.590;10.062;2022-07-11T09:19:52;18.10;99.90
14737;DHT22;7459;53.590;10.062;2022-07-11T09:22:18;18.00;99.90
14737;DHT22;7459;53.590;10.062;2022-07-11T09:25:10;18.00;99.90
14737;DHT22;7459;53.590;10.062;2022-07-11T09:27:54;18.00;99.90
14737;DHT22;7459;53.590;10.062;2022-07-11T09:30:34;18.00;99.90
14737;DHT22;7459;53.590;10.062;2022-07-11T09:33:06;18.10;99.90
14737;DHT22;7459;53.590;10.062;2022-07-11T09:35:39;18.20;99.90
14737;DHT22;7459;53.590;10.062;2022-07-11T09:38:14;18.30;99.90
14737;DHT22;7459;53.590;10.062;2022-07-11T09:40:47;18.30;99.90
14737;DHT22;7459;53.590;10.062;2022-07-11T09:43:14;18.30;99.90
14737;DHT22;7459;53.590;10.062;2022-07-11T09:45:40;18.30;99.90
14737;DHT22;7459;53.590;10.062;2022-07-11T09:48:08;18.40;99.90
14737;DHT22;7459;53.590;10.062;2022-07-11T09:50:36;18.50;99.90
14737;DHT22;7459;53.590;10.062;2022-07-11T09:53:07;18.50;99.90
14737;DHT22;7459;53.590;10.062;2022-07-11T09:55:36;18.50;99.90
14737;DHT22;7459;53.590;10.062;2022-07-11T09:58:04;18.50;99.90
14737;DHT22;7459;53.590;10.062;2022-07-11T10:00:31;18.50;99.90
14737;DHT22;7459;53.590;10.062;2022-07-11T10:02:59;18.50;99.90
14737;DHT22;7459;53.590;10.062;2022-07-11T10:05:26;18.60;99.90
14737;DHT22;7459;53.590;10.062;2022-07-11T10:07:52;18.70;99.90
14737;DHT22;7459;53.590;10.062;2022-07-11T10:10:18;18.80;99.90
14737;DHT22;7459;53.590;10.062;2022-07-11T10:12:45;18.80;99.90
14737;DHT22;7459;53.590;10.062;2022-07-11T10:15:15;18.70;99.90
14737;DHT22;7459;53.590;10.062;2022-07-11T10:17:44;18.60;99.90
14737;DHT22;7459;53.590;10.062;2022-07-11T10:20:22;18.50;99.90
14737;DHT22;7459;53.590;10.062;2022-07-11T10:25:37;18.70;99.90
14737;DHT22;7459;53.590;10.062;2022-07-11T10:28:18;18.80;99.90
14737;DHT22;7459;53.590;10.062;2022-07-11T10:30:52;18.70;99.90
14737;DHT22;7459;53.590;10.062;2022-07-11T10:33:21;18.70;99.90
14737;DHT22;7459;53.590;10.062;2022-07-11T10:35:50;18.70;99.90
14737;DHT22;7459;53.590;10.062;2022-07-11T10:38:16;18.80;99.90
14737;DHT22;7459;53.590;10.062;2022-07-11T10:43:33;18.90;99.90
14737;DHT22;7459;53.590;10.062;2022-07-11T10:48:55;19.10;99.90
14737;DHT22;7459;53.590;10.062;2022-07-11T10:51:33;19.10;99.90
14737;DHT22;7459;53.590;10.062;2022-07-11T11:00:01;19.30;99.90
14737;DHT22;7459;53.590;10.062;2022-07-11T11:02:30;19.30;99.90
14737;DHT22;7459;53.590;10.062;2022-07-11T11:05:00;19.40;99.90
14737;DHT22;7459;53.590;10.062;2022-07-11T11:07:42;19.50;99.90
14737;DHT22;7459;53.590;10.062;2022-07-11T11:15:51;19.60;99.90
14737;DHT22;7459;53.590;10.062;2022-07-11T11:26:49;19.90;99.90
14737;DHT22;7459;53.590;10.062;2022-07-11T11:29:25;20.00;99.90
14737;DHT22;7459;53.590;10.062;2022-07-11T11:31:57;20.00;99.90
14737;DHT22;7459;53.590;10.062;2022-07-11T11:34:24;20.00;99.90
14737;DHT22;7459;53.590;10.062;2022-07-11T11:36:55;20.10;99.90
14737;DHT22;7459;53.590;10.062;2022-07-11T11:39:30;20.20;99.90
14737;DHT22;7459;53.590;10.062;2022-07-11T11:42:08;20.10;99.90
14737;DHT22;7459;53.590;10.062;2022-07-11T11:44:51;20.00;99.90
14737;DHT22;7459;53.590;10.062;2022-07-11T11:47:17;19.90;99.90
14737;DHT22;7459;53.590;10.062;2022-07-11T11:49:44;20.00;99.90
14737;DHT22;7459;53.590;10.062;2022-07-11T11:52:11;20.10;99.90
14737;DHT22;7459;53.590;10.062;2022-07-11T11:54:37;20.30;99.90
14737;DHT22;7459;53.590;10.062;2022-07-11T11:57:09;20.30;99.90
14737;DHT22;7459;53.590;10.062;2022-07-11T11:59:37;20.20;99.90
14737;DHT22;7459;53.590;10.062;2022-07-11T12:02:04;20.10;99.90
14737;DHT22;7459;53.590;10.062;2022-07-11T12:04:32;20.10;99.90
14737;DHT22;7459;53.590;10.062;2022-07-11T12:06:59;20.00;99.90
14737;DHT22;7459;53.590;10.062;2022-07-11T12:09:27;19.90;99.90
14737;DHT22;7459;53.590;10.062;2022-07-11T12:12:12;19.90;99.90
14737;DHT22;7459;53.590;10.062;2022-07-11T12:15:00;20.00;99.90
14737;DHT22;7459;53.590;10.062;2022-07-11T12:17:27;20.20;99.90
14737;DHT22;7459;53.590;10.062;2022-07-11T12:19:55;20.30;99.90
14737;DHT22;7459;53.590;10.062;2022-07-11T12:22:21;20.50;99.90
14737;DHT22;7459;53.590;10.062;2022-07-11T12:24:47;20.60;99.90
14737;DHT22;7459;53.590;10.062;2022-07-11T12:27:22;20.80;99.90
14737;DHT22;7459;53.590;10.062;2022-07-11T12:29:50;21.00;99.90
14737;DHT22;7459;53.590;10.062;2022-07-11T12:32:18;21.10;99.90
14737;DHT22;7459;53.590;10.062;2022-07-11T12:34:46;21.10;99.90
14737;DHT22;7459;53.590;10.062;2022-07-11T12:37:19;21.20;99.90
14737;DHT22;7459;53.590;10.062;2022-07-11T12:39:54;21.30;99.90
14737;DHT22;7459;53.590;10.062;2022-07-11T12:42:31;21.40;99.90
14737;DHT22;7459;53.590;10.062;2022-07-11T12:45:09;21.60;99.90
14737;DHT22;7459;53.590;10.062;2022-07-11T12:47:41;21.70;99.90
14737;DHT22;7459;53.590;10.062;2022-07-11T12:52:57;21.80;99.90
14737;DHT22;7459;53.590;10.062;2022-07-11T12:55:24;21.50;99.90
14737;DHT22;7459;53.590;10.062;2022-07-11T12:58:09;21.50;99.90
14737;DHT22;7459;53.590;10.062;2022-07-11T13:00:38;21.60;99.90
14737;DHT22;7459;53.590;10.062;2022-07-11T13:03:07;21.70;99.90
14737;DHT22;7459;53.590;10.062;2022-07-11T13:05:49;21.70;99.90
14737;DHT22;7459;53.590;10.062;2022-07-11T13:08:27;21.50;99.90
14737;DHT22;7459;53.590;10.062;2022-07-11T13:11:19;21.50;99.90
14737;DHT22;7459;53.590;10.062;2022-07-11T13:13:48;21.70;99.90
14737;DHT22;7459;53.590;10.062;2022-07-11T13:16:15;21.90;99.90
14737;DHT22;7459;53.590;10.062;2022-07-11T13:18:42;22.00;99.90
14737;DHT22;7459;53.590;10.062;2022-07-11T13:21:08;22.10;99.90
14737;DHT22;7459;53.590;10.062;2022-07-11T13:23:35;22.20;99.90
14737;DHT22;7459;53.590;10.062;2022-07-11T13:26:02;22.30;99.90
14737;DHT22;7459;53.590;10.062;2022-07-11T13:28:28;22.40;99.90
14737;DHT22;7459;53.590;10.062;2022-07-11T13:30:54;22.60;99.90
14737;DHT22;7459;53.590;10.062;2022-07-11T13:33:20;22.70;99.90
14737;DHT22;7459;53.590;10.062;2022-07-11T13:35:48;22.70;99.90
14737;DHT22;7459;53.590;10.062;2022-07-11T13:38:15;22.60;99.80
14737;DHT22;7459;53.590;10.062;2022-07-11T13:40:41;22.40;99.70
14737;DHT22;7459;53.590;10.062;2022-07-11T13:43:08;22.50;99.70
14737;DHT22;7459;53.590;10.062;2022-07-11T13:45:34;22.70;99.30
14737;DHT22;7459;53.590;10.062;2022-07-11T13:48:00;22.80;99.10
14737;DHT22;7459;53.590;10.062;2022-07-11T13:50:26;23.10;99.00
14737;DHT22;7459;53.590;10.062;2022-07-11T13:52:52;23.30;98.70
14737;DHT22;7459;53.590;10.062;2022-07-11T13:55:20;23.20;99.40
14737;DHT22;7459;53.590;10.062;2022-07-11T13:57:49;23.40;99.80
14737;DHT22;7459;53.590;10.062;2022-07-11T14:00:18;23.60;99.90
14737;DHT22;7459;53.590;10.062;2022-07-11T14:02:44;23.70;99.90
14737;DHT22;7459;53.590;10.062;2022-07-11T14:05:10;26.50;99.90
14737;DHT22;7459;53.590;10.062;2022-07-11T14:07:36;29.70;97.50
14737;DHT22;7459;53.590;10.062;2022-07-11T14:10:03;32.90;93.50
14737;DHT22;7459;53.590;10.062;2022-07-11T14:12:30;34.30;90.60
14737;DHT22;7459;53.590;10.062;2022-07-11T14:14:56;36.60;84.20
14737;DHT22;7459;53.590;10.062;2022-07-11T14:17:22;38.40;78.60
14737;DHT22;7459;53.590;10.062;2022-07-11T14:19:51;39.70;72.00
14737;DHT22;7459;53.590;10.062;2022-07-11T14:22:17;40.90;68.10
14737;DHT22;7459;53.590;10.062;2022-07-11T14:24:43;41.70;65.90
14737;DHT22;7459;53.590;10.062;2022-07-11T14:27:09;42.50;63.70
14737;DHT22;7459;53.590;10.062;2022-07-11T14:29:35;43.50;60.20
14737;DHT22;7459;53.590;10.062;2022-07-11T14:32:01;43.60;57.70
14737;DHT22;7459;53.590;10.062;2022-07-11T14:34:27;41.00;57.20
14737;DHT22;7459;53.590;10.062;2022-07-11T14:36:54;37.50;58.10
14737;DHT22;7459;53.590;10.062;2022-07-11T14:39:20;33.80;60.40
14737;DHT22;7459;53.590;10.062;2022-07-11T14:41:47;30.90;63.90
14737;DHT22;7459;53.590;10.062;2022-07-11T14:44:13;28.80;68.10
14737;DHT22;7459;53.590;10.062;2022-07-11T14:46:39;27.40;70.80
14737;DHT22;7459;53.590;10.062;2022-07-11T14:49:07;26.10;75.50
14737;DHT22;7459;53.590;10.062;2022-07-11T14:51:34;25.30;78.80
14737;DHT22;7459;53.590;10.062;2022-07-11T14:54:00;24.70;81.10
14737;DHT22;7459;53.590;10.062;2022-07-11T14:56:26;24.20;83.50
14737;DHT22;7459;53.590;10.062;2022-07-11T14:58:52;23.90;84.10
14737;DHT22;7459;53.590;10.062;2022-07-11T15:01:18;23.60;85.40
14737;DHT22;7459;53.590;10.062;2022-07-11T15:03:44;23.50;86.50
14737;DHT22;7459;53.590;10.062;2022-07-11T15:06:15;23.30;87.40
14737;DHT22;7459;53.590;10.062;2022-07-11T15:08:42;23.10;90.10
14737;DHT22;7459;53.590;10.062;2022-07-11T15:11:27;23.00;90.80
14737;DHT22;7459;53.590;10.062;2022-07-11T15:14:12;22.90;91.40
14737;DHT22;7459;53.590;10.062;2022-07-11T15:16:41;22.90;91.20
14737;DHT22;7459;53.590;10.062;2022-07-11T15:19:08;22.80;91.60
14737;DHT22;7459;53.590;10.062;2022-07-11T15:21:34;22.90;91.20
14737;DHT22;7459;53.590;10.062;2022-07-11T15:24:00;22.70;91.80
14737;DHT22;7459;53.590;10.062;2022-07-11T15:26:27;22.90;92.30
14737;DHT22;7459;53.590;10.062;2022-07-11T15:28:53;22.90;93.00
14737;DHT22;7459;53.590;10.062;2022-07-11T15:31:20;22.70;93.60
14737;DHT22;7459;53.590;10.062;2022-07-11T15:33:46;22.60;94.40
14737;DHT22;7459;53.590;10.062;2022-07-11T15:36:14;22.50;94.60
14737;DHT22;7459;53.590;10.062;2022-07-11T15:38:42;22.50;94.30
14737;DHT22;7459;53.590;10.062;2022-07-11T15:41:13;22.50;94.30
14737;DHT22;7459;53.590;10.062;2022-07-11T15:43:40;22.50;94.70
14737;DHT22;7459;53.590;10.062;2022-07-11T15:46:05;22.60;94.60
14737;DHT22;7459;53.590;10.062;2022-07-11T15:48:31;22.60;95.10
14737;DHT22;7459;53.590;10.062;2022-07-11T15:50:57;22.60;95.50
14737;DHT22;7459;53.590;10.062;2022-07-11T15:53:23;22.70;95.30
14737;DHT22;7459;53.590;10.062;2022-07-11T15:55:49;22.90;95.60
14737;DHT22;7459;53.590;10.062;2022-07-11T15:58:15;22.80;95.20
14737;DHT22;7459;53.590;10.062;2022-07-11T16:00:42;22.70;94.90
14737;DHT22;7459;53.590;10.062;2022-07-11T16:03:09;22.50;95.20
14737;DHT22;7459;53.590;10.062;2022-07-11T16:05:35;22.70;95.50
14737;DHT22;7459;53.590;10.062;2022-07-11T16:08:01;23.60;95.10
14737;DHT22;7459;53.590;10.062;2022-07-11T16:10:27;24.80;93.80